createdAt,value
2019-01-30T00:00:27.769Z,421.77
2019-01-30T00:02:32.091Z,834.03
2019-01-30T00:04:36.764Z,323.53
2019-01-30T00:06:41.063Z,518.07
2019-01-30T00:08:45.243Z,841.67
2019-01-30T00:10:50.305Z,153.57
2019-01-30T00:12:54.955Z,828.73
2019-01-30T00:14:59.569Z,269.10
2019-01-30T00:17:07.248Z,20.57
2019-01-30T00:19:15.736Z,12.97
2019-01-30T00:21:20.774Z,9.50
2019-01-30T00:23:25.168Z,8.70
2019-01-30T00:25:29.637Z,6.73
2019-01-30T00:27:37.991Z,6.23
2019-01-30T00:29:45.497Z,6.90
2019-01-30T00:31:53.522Z,5.67
2019-01-30T00:33:57.815Z,5.80
2019-01-30T00:36:02.038Z,4.70
2019-01-30T00:38:06.197Z,4.87
2019-01-30T00:40:10.732Z,4.93
2019-01-30T00:42:14.958Z,4.73
2019-01-30T00:44:19.190Z,5.20
2019-01-30T00:46:23.423Z,4.43
2019-01-30T00:48:27.644Z,3.93
2019-01-30T00:50:31.843Z,4.27
2019-01-30T00:52:37.005Z,4.00
2019-01-30T00:54:45.423Z,3.70
2019-01-30T00:56:52.456Z,4.00
2019-01-30T00:58:58.841Z,3.67
2019-01-30T01:01:03.122Z,3.60
2019-01-30T01:03:07.355Z,3.67
2019-01-30T01:05:11.850Z,3.80
2019-01-30T01:07:16.049Z,3.07
2019-01-30T01:09:20.233Z,3.57
2019-01-30T01:11:25.341Z,4.20
2019-01-30T01:13:29.600Z,3.53
2019-01-30T01:15:33.780Z,3.80
2019-01-30T01:17:38.613Z,3.30
2019-01-30T01:19:44.809Z,2.97
2019-01-30T01:21:59.159Z,3.20
2019-01-30T01:24:03.477Z,3.00
2019-01-30T01:26:07.611Z,3.60
2019-01-30T01:28:11.800Z,3.17
2019-01-30T01:30:25.156Z,3.30
2019-01-30T01:32:27.243Z,2.63
2019-01-30T01:34:31.915Z,2.50
2019-01-30T01:36:36.030Z,2.90
2019-01-30T01:38:40.303Z,2.50
2019-01-30T01:40:45.453Z,3.00
2019-01-30T01:42:52.550Z,2.97
2019-01-30T01:44:57.853Z,3.00
2019-01-30T01:47:09.694Z,2.80
2019-01-30T01:49:13.844Z,3.10
2019-01-30T01:51:18.111Z,3.13
2019-01-30T01:53:22.391Z,2.80
2019-01-30T01:55:26.592Z,2.90
2019-01-30T01:57:31.077Z,3.00
2019-01-30T01:59:35.307Z,2.70
2019-01-30T02:01:39.486Z,2.93
2019-01-30T02:03:44.021Z,2.50
2019-01-30T02:05:48.727Z,3.00
2019-01-30T02:07:55.671Z,2.43
2019-01-30T02:10:01.563Z,2.93
2019-01-30T02:12:08.854Z,3.00
2019-01-30T02:14:12.987Z,3.03
2019-01-30T02:16:18.087Z,2.70
2019-01-30T02:18:22.204Z,2.73
2019-01-30T02:20:30.099Z,3.00
2019-01-30T02:22:34.530Z,3.07
2019-01-30T02:24:38.774Z,2.90
2019-01-30T02:26:43.399Z,2.80
2019-01-30T02:28:47.762Z,2.70
2019-01-30T02:30:52.275Z,2.50
2019-01-30T02:32:59.242Z,3.07
2019-01-30T02:35:04.744Z,2.80
2019-01-30T02:37:13.016Z,2.90
2019-01-30T02:39:17.703Z,2.90
2019-01-30T02:41:21.876Z,2.50
2019-01-30T02:43:26.315Z,2.60
2019-01-30T02:45:30.786Z,3.20
2019-01-30T02:47:35.486Z,2.63
2019-01-30T02:49:39.708Z,3.10
2019-01-30T02:51:44.191Z,3.00
2019-01-30T02:53:48.399Z,3.00
2019-01-30T02:55:52.652Z,2.90
2019-01-30T02:57:58.113Z,3.10
2019-01-30T03:00:05.259Z,3.00
2019-01-30T03:02:21.943Z,3.00
2019-01-30T03:04:26.419Z,3.00
2019-01-30T03:06:30.637Z,3.13
2019-01-30T03:08:34.782Z,2.90
2019-01-30T03:10:39.233Z,3.00
2019-01-30T03:12:43.354Z,3.20
2019-01-30T03:14:47.507Z,2.50
2019-01-30T03:16:52.396Z,2.70
2019-01-30T03:18:56.575Z,2.60
2019-01-30T03:21:00.880Z,2.80
2019-01-30T03:23:09.400Z,3.10
2019-01-30T03:25:15.112Z,2.53
2019-01-30T03:27:23.462Z,2.90
2019-01-30T03:29:28.074Z,3.23
2019-01-30T03:31:32.292Z,2.53
2019-01-30T03:33:38.913Z,2.77
2019-01-30T03:35:47.055Z,2.50
2019-01-30T03:37:54.394Z,3.17
2019-01-30T03:40:05.714Z,2.70
2019-01-30T03:42:09.900Z,2.93
2019-01-30T03:44:14.019Z,2.90
2019-01-30T03:46:18.404Z,2.90
2019-01-30T03:48:22.564Z,2.20
2019-01-30T03:50:26.954Z,2.73
2019-01-30T03:52:31.051Z,2.43
2019-01-30T03:54:35.263Z,2.23
2019-01-30T03:56:40.747Z,3.27
2019-01-30T03:58:48.724Z,2.57
2019-01-30T04:00:56.535Z,2.40
2019-01-30T04:03:01.116Z,2.47
2019-01-30T04:05:05.926Z,2.90
2019-01-30T04:07:10.443Z,2.67
2019-01-30T04:09:14.716Z,2.93
2019-01-30T04:11:19.051Z,2.80
2019-01-30T04:13:25.915Z,2.60
2019-01-30T04:15:30.128Z,2.73
2019-01-30T04:17:34.177Z,3.33
2019-01-30T04:19:38.390Z,2.77
2019-01-30T04:21:43.637Z,3.00
2019-01-30T04:23:51.337Z,3.27
2019-01-30T04:26:03.862Z,2.97
2019-01-30T04:28:07.964Z,2.83
2019-01-30T04:30:15.219Z,3.17
2019-01-30T04:32:20.200Z,3.10
2019-01-30T04:34:24.325Z,2.70
2019-01-30T04:36:28.525Z,2.87
2019-01-30T04:38:32.988Z,2.40
2019-01-30T04:40:37.139Z,3.10
2019-01-30T04:42:41.301Z,2.80
2019-01-30T04:44:46.190Z,3.10
2019-01-30T04:46:53.325Z,2.77
2019-01-30T04:49:04.339Z,3.00
2019-01-30T04:51:08.160Z,2.90
2019-01-30T04:53:12.322Z,2.63
2019-01-30T04:55:16.491Z,2.70
2019-01-30T04:57:21.208Z,2.80
2019-01-30T04:59:25.378Z,2.97
2019-01-30T05:01:29.553Z,2.70
2019-01-30T05:03:34.008Z,3.10
2019-01-30T05:05:38.743Z,2.60
2019-01-30T05:07:42.846Z,2.73
2019-01-30T05:09:47.395Z,2.30
2019-01-30T05:11:52.940Z,2.77
2019-01-30T05:14:02.909Z,2.93
2019-01-30T05:16:25.732Z,2.80
2019-01-30T05:18:29.824Z,2.43
2019-01-30T05:20:34.113Z,3.13
2019-01-30T05:22:38.756Z,2.50
2019-01-30T05:24:42.910Z,2.97
2019-01-30T05:26:47.351Z,3.27
2019-01-30T05:28:52.366Z,2.67
2019-01-30T05:30:58.886Z,2.43
2019-01-30T05:33:06.057Z,2.50
2019-01-30T05:35:14.268Z,2.53
2019-01-30T05:37:18.578Z,2.80
2019-01-30T05:39:22.867Z,2.70
2019-01-30T05:41:27.477Z,2.60
2019-01-30T05:43:31.984Z,2.33
2019-01-30T05:45:36.137Z,2.43
2019-01-30T05:47:40.783Z,2.80
2019-01-30T05:49:45.148Z,2.63
2019-01-30T05:51:50.400Z,2.33
2019-01-30T05:53:54.920Z,2.73
2019-01-30T05:56:00.343Z,2.90
2019-01-30T05:58:08.646Z,2.73
2019-01-30T06:00:22.935Z,2.93
2019-01-30T06:02:27.209Z,2.70
2019-01-30T06:04:32.154Z,2.67
2019-01-30T06:06:36.373Z,2.90
2019-01-30T06:08:40.702Z,2.93
2019-01-30T06:10:46.320Z,2.70
2019-01-30T06:12:50.619Z,2.80
2019-01-30T06:14:55.468Z,2.70
2019-01-30T06:16:59.641Z,2.90
2019-01-30T06:19:06.541Z,2.77
2019-01-30T06:21:13.160Z,2.93
2019-01-30T06:23:21.021Z,2.70
2019-01-30T06:25:25.447Z,3.30
2019-01-30T06:27:29.817Z,3.00
2019-01-30T06:29:34.388Z,2.80
2019-01-30T06:31:39.101Z,2.93
2019-01-30T06:33:43.442Z,3.07
2019-01-30T06:35:49.167Z,3.23
2019-01-30T06:37:59.606Z,3.60
2019-01-30T06:40:04.035Z,5.70
2019-01-30T06:42:08.985Z,7.80
2019-01-30T06:44:13.353Z,5.03
2019-01-30T06:46:17.613Z,14.00
2019-01-30T06:48:22.370Z,499.97
2019-01-30T06:50:26.949Z,6.70
2019-01-30T06:52:31.462Z,4.67
2019-01-30T06:54:36.076Z,5.07
2019-01-30T06:56:40.995Z,5.90
2019-01-30T06:58:48.052Z,4.60
2019-01-30T07:00:54.653Z,5.00
2019-01-30T07:03:02.133Z,7.40
2019-01-30T07:05:09.252Z,11.50
2019-01-30T07:07:13.992Z,309.23
2019-01-30T07:09:18.336Z,650.40
2019-01-30T07:11:22.470Z,585.93
2019-01-30T07:13:26.979Z,666.93
2019-01-30T07:15:31.493Z,524.97
2019-01-30T07:17:35.742Z,571.40
2019-01-30T07:19:41.180Z,563.17
2019-01-30T07:21:48.221Z,283.07
2019-01-30T07:23:55.013Z,132.53
2019-01-30T07:26:06.823Z,59.83
2019-01-30T07:28:12.298Z,27.13
2019-01-30T07:30:25.108Z,16.00
2019-01-30T07:32:29.626Z,11.23
2019-01-30T07:34:34.184Z,10.30
2019-01-30T07:36:38.620Z,8.43
2019-01-30T07:38:42.894Z,7.10
2019-01-30T07:40:47.755Z,7.87
2019-01-30T07:42:56.266Z,7.20
2019-01-30T07:45:10.074Z,522.07
2019-01-30T07:47:14.489Z,124.77
2019-01-30T07:49:18.748Z,953.57
2019-01-30T07:51:22.944Z,375.70
2019-01-30T07:53:27.132Z,740.30
2019-01-30T07:55:31.981Z,214.87
2019-01-30T07:57:39.456Z,79.57
2019-01-30T07:59:43.853Z,910.73
2019-01-30T08:01:49.537Z,335.77
2019-01-30T08:03:57.893Z,358.73
2019-01-30T08:06:09.467Z,366.07
2019-01-30T08:08:15.235Z,184.30
2019-01-30T08:10:19.806Z,55.17
2019-01-30T08:12:24.204Z,63.83
2019-01-30T08:14:28.482Z,31.70
2019-01-30T08:16:33.442Z,59.43
2019-01-30T08:18:37.631Z,109.20
2019-01-30T08:20:42.000Z,22.73
2019-01-30T08:22:46.994Z,45.20
2019-01-30T08:24:51.550Z,747.70
2019-01-30T08:26:58.952Z,121.70
2019-01-30T08:29:09.105Z,214.00
2019-01-30T08:31:15.355Z,691.80
2019-01-30T08:33:21.603Z,796.03
2019-01-30T08:35:27.544Z,582.80
2019-01-30T08:37:31.636Z,490.60
2019-01-30T08:39:36.235Z,823.10
2019-01-30T08:41:41.169Z,825.47
2019-01-30T08:43:45.694Z,339.13
2019-01-30T08:45:50.287Z,144.17
2019-01-30T08:47:55.951Z,568.10
2019-01-30T08:50:03.192Z,999.90
2019-01-30T08:52:09.535Z,601.47
2019-01-30T08:54:26.546Z,472.20
2019-01-30T08:56:30.766Z,250.53
2019-01-30T08:58:35.301Z,111.07
2019-01-30T09:00:40.063Z,52.80
2019-01-30T09:02:44.258Z,23.97
2019-01-30T09:04:48.567Z,16.00
2019-01-30T09:06:53.254Z,369.37
2019-01-30T09:08:58.540Z,357.27
2019-01-30T09:11:04.246Z,593.87
2019-01-30T09:13:12.739Z,999.90
2019-01-30T09:15:21.398Z,636.93
2019-01-30T09:17:28.621Z,803.60
2019-01-30T09:19:33.367Z,668.97
2019-01-30T09:21:38.534Z,999.90
2019-01-30T09:23:43.361Z,751.43
2019-01-30T09:25:48.126Z,999.90
2019-01-30T09:27:55.864Z,531.67
2019-01-30T09:30:01.242Z,232.83
2019-01-30T09:32:08.585Z,236.30
2019-01-30T09:34:17.118Z,90.10
2019-01-30T09:36:27.803Z,40.43
2019-01-30T09:38:33.289Z,20.17
2019-01-30T09:40:37.517Z,13.10
2019-01-30T09:42:42.045Z,10.50
2019-01-30T09:44:46.625Z,704.83
2019-01-30T09:46:54.503Z,32.33
2019-01-30T09:49:01.761Z,15.33
2019-01-30T09:51:08.873Z,8.60
2019-01-30T09:53:13.172Z,999.90
2019-01-30T09:55:17.625Z,233.67
2019-01-30T09:57:22.809Z,178.47
2019-01-30T09:59:29.432Z,337.30
2019-01-30T10:01:35.171Z,712.03
2019-01-30T10:03:41.883Z,218.97
2019-01-30T10:05:48.910Z,140.47
2019-01-30T10:07:59.124Z,658.33
2019-01-30T10:10:12.551Z,74.83
2019-01-30T10:12:18.179Z,199.23
2019-01-30T10:14:22.610Z,106.10
2019-01-30T10:16:28.632Z,929.53
2019-01-30T10:18:33.997Z,956.93
2019-01-30T10:20:39.541Z,377.80
2019-01-30T10:22:45.912Z,630.10
2019-01-30T10:24:53.955Z,972.33
2019-01-30T10:27:00.391Z,727.33
2019-01-30T10:29:05.182Z,926.17
2019-01-30T10:31:09.753Z,830.00
2019-01-30T10:33:14.040Z,731.20
2019-01-30T10:35:18.540Z,732.13
2019-01-30T10:37:25.461Z,818.47
2019-01-30T10:39:29.335Z,249.70
2019-01-30T10:41:34.294Z,110.50
2019-01-30T10:43:38.677Z,999.90
2019-01-30T10:45:43.242Z,51.90
2019-01-30T10:47:48.155Z,714.23
2019-01-30T10:49:55.352Z,163.83
2019-01-30T10:52:03.238Z,66.47
2019-01-30T10:54:08.916Z,997.00
2019-01-30T10:56:16.641Z,311.73
2019-01-30T10:58:23.436Z,783.57
2019-01-30T11:00:34.201Z,262.70
2019-01-30T11:02:39.452Z,34.37
2019-01-30T11:04:44.948Z,892.87
2019-01-30T11:06:50.116Z,999.90
2019-01-30T11:08:58.115Z,724.27
2019-01-30T11:11:10.090Z,764.00
2019-01-30T11:13:15.304Z,731.00
2019-01-30T11:15:24.009Z,418.93
2019-01-30T11:17:32.715Z,999.90
2019-01-30T11:19:40.770Z,336.47
2019-01-30T12:15:29.048Z,701.63
2019-01-30T12:17:33.963Z,835.07
2019-01-30T12:19:59.968Z,413.03
2019-01-30T12:22:05.287Z,905.70
2019-01-30T12:24:11.433Z,878.63
2019-01-30T12:26:19.990Z,851.67
2019-01-30T12:28:26.396Z,581.57
2019-01-30T12:30:30.665Z,601.30
2019-01-30T12:35:43.344Z,254.63
2019-01-30T12:37:48.733Z,132.97
2019-01-30T12:39:53.014Z,93.33
2019-01-30T12:41:57.411Z,924.73
2019-01-30T12:44:03.181Z,253.73
2019-01-30T13:26:41.862Z,79.23
2019-01-30T13:28:47.662Z,844.50
2019-01-30T13:30:55.848Z,999.90
2019-01-30T13:33:04.274Z,382.47
2019-01-30T13:35:19.322Z,227.10
2019-01-30T13:37:26.572Z,906.20
2019-01-30T13:39:33.350Z,887.37
2019-01-30T13:41:42.626Z,403.97
2019-01-30T13:43:51.978Z,912.80
2019-01-30T13:46:06.751Z,401.77
2019-01-30T13:48:20.576Z,792.20
2019-01-30T13:50:29.169Z,824.53
2019-01-30T13:52:39.538Z,277.83
2019-01-30T13:54:46.517Z,41.90
2019-01-30T13:56:55.046Z,479.20
2019-01-30T13:59:16.701Z,295.20
2019-01-30T14:01:23.802Z,795.83
2019-01-30T14:03:29.656Z,853.43
2019-01-30T14:05:35.202Z,742.60
2019-01-30T14:07:41.269Z,949.63
2019-01-30T14:29:27.745Z,681.50
2019-01-30T14:31:41.979Z,201.47
2019-01-30T14:33:54.650Z,85.43
2019-01-30T14:36:18.388Z,829.57
2019-01-30T14:38:23.659Z,76.37
2019-01-30T14:40:28.519Z,614.73
2019-01-30T14:42:39.312Z,42.60
2019-01-30T14:44:46.749Z,50.27
2019-01-30T14:46:58.450Z,19.43
2019-01-30T14:49:10.574Z,392.67
2019-01-30T14:51:28.768Z,54.57
2019-01-30T14:53:36.861Z,586.93
2019-01-30T14:55:43.978Z,466.70
2019-01-30T14:57:50.746Z,120.33
2019-01-30T14:59:55.655Z,43.80
2019-01-30T15:02:07.984Z,938.57
2019-01-30T15:04:23.699Z,999.90
2019-01-30T15:06:29.171Z,877.90
2019-01-30T15:08:40.593Z,206.90
2019-01-30T15:10:53.942Z,85.73
2019-01-30T15:13:00.928Z,747.17
2019-01-30T15:15:30.388Z,359.47
2019-01-30T15:17:36.866Z,239.57
2019-01-30T15:19:42.718Z,93.30
2019-01-30T15:21:51.944Z,42.00
2019-01-30T15:24:02.644Z,935.13
2019-01-30T15:26:09.272Z,21.37
2019-01-30T15:28:21.708Z,8.80
2019-01-30T15:30:34.184Z,6.60
2019-01-30T15:48:39.429Z,6.50
2019-01-30T15:50:50.953Z,345.80
2019-01-30T15:53:00.523Z,6.27
2019-01-30T15:55:11.344Z,18.60
2019-01-30T15:57:16.299Z,4.70
2019-01-30T15:59:26.624Z,41.87
2019-01-30T16:01:36.444Z,6.40
2019-01-30T16:03:41.343Z,599.40
2019-01-30T16:05:47.737Z,115.53
2019-01-30T16:07:53.580Z,7.60
2019-01-30T16:10:05.883Z,534.20
2019-01-30T16:12:11.506Z,32.20
2019-01-30T16:14:17.431Z,6.47
2019-01-30T16:16:23.741Z,5.03
2019-01-30T16:18:28.005Z,4.70
2019-01-30T16:20:32.171Z,5.30
2019-01-30T16:22:38.364Z,5.20
2019-01-30T16:24:43.626Z,4.50
2019-01-30T16:26:51.419Z,4.67
2019-01-30T16:34:21.851Z,4.60
2019-01-30T16:36:26.642Z,4.53
2019-01-30T16:38:33.066Z,4.33
2019-01-30T16:40:47.279Z,4.13
2019-01-30T16:42:54.533Z,4.40
2019-01-30T16:45:04.124Z,4.23
2019-01-30T16:47:16.667Z,4.00
2019-01-30T16:49:21.024Z,4.50
2019-01-30T16:56:39.179Z,4.10
2019-01-30T16:58:43.948Z,4.00
2019-01-30T17:00:48.195Z,3.97
2019-01-30T17:02:52.959Z,4.10
2019-01-30T17:04:59.967Z,4.57
2019-01-30T17:07:14.199Z,4.07
2019-01-30T17:09:19.942Z,4.00
2019-01-30T17:17:18.936Z,3.87
2019-01-30T17:19:25.482Z,4.87
2019-01-30T17:21:29.891Z,4.40
2019-01-30T17:25:57.783Z,4.07
2019-01-30T17:28:06.629Z,4.73
2019-01-30T17:30:30.821Z,4.20
2019-01-30T17:32:38.201Z,4.37
2019-01-30T17:37:34.095Z,4.23
2019-01-30T17:39:42.508Z,4.30
2019-01-30T17:41:54.249Z,4.60
2019-01-30T17:46:28.058Z,4.70
2019-01-30T18:01:11.351Z,4.80
2019-01-30T18:03:26.273Z,5.00
2019-01-30T18:05:34.943Z,5.30
2019-01-30T18:07:40.664Z,4.60
2019-01-30T18:09:47.252Z,5.00
2019-01-30T18:11:53.223Z,5.37
2019-01-30T18:14:03.123Z,4.83
2019-01-30T18:16:14.086Z,4.80
2019-01-30T18:18:23.100Z,4.70
2019-01-30T18:20:32.560Z,5.13
2019-01-30T18:22:39.657Z,4.57
2019-01-30T18:24:53.444Z,4.30
2019-01-30T18:27:06.083Z,4.97
2019-01-30T18:29:17.855Z,4.90
2019-01-30T18:31:35.984Z,4.70
2019-01-30T18:33:50.606Z,4.60
2019-01-30T18:36:17.271Z,4.73
2019-01-30T18:43:42.466Z,4.23
2019-01-30T18:45:38.031Z,4.60
2019-01-30T18:48:02.624Z,3.60
2019-01-30T18:50:27.348Z,4.00
2019-01-30T18:52:33.123Z,3.40
2019-01-30T18:54:38.296Z,3.27
2019-01-30T18:56:43.527Z,3.43
2019-01-30T18:58:51.731Z,3.53
2019-01-30T19:00:59.651Z,3.40
2019-01-30T19:03:10.083Z,3.33
2019-01-30T19:05:18.216Z,3.50
2019-01-30T19:07:22.741Z,3.37
2019-01-30T19:09:27.667Z,3.30
2019-01-30T19:11:35.300Z,3.70
2019-01-30T19:13:40.114Z,3.30
2019-01-30T19:15:46.290Z,3.00
2019-01-30T19:17:52.577Z,3.20
2019-01-30T19:20:01.888Z,2.83
2019-01-30T19:22:10.085Z,3.23
2019-01-30T19:24:13.283Z,2.47
2019-01-30T19:26:20.029Z,2.87
2019-01-30T19:28:24.631Z,2.73
2019-01-30T19:30:34.866Z,2.87
2019-01-30T19:32:40.394Z,2.60
2019-01-30T19:34:45.564Z,2.50
2019-01-30T19:37:03.266Z,3.00
2019-01-30T19:39:06.855Z,3.03
2019-01-30T19:41:13.472Z,2.83
2019-01-30T19:43:21.402Z,2.60
2019-01-30T19:45:30.473Z,2.77
2019-01-30T19:47:39.063Z,2.80
2019-01-30T19:49:43.423Z,2.80
2019-01-30T19:51:48.409Z,2.40
2019-01-30T19:53:55.456Z,2.93
2019-01-30T19:56:02.626Z,2.43
2019-01-30T19:58:12.502Z,2.53
2019-01-30T20:00:21.629Z,2.63
2019-01-30T20:02:27.105Z,2.80
2019-01-30T20:04:32.772Z,2.10
2019-01-30T20:14:19.397Z,2.73
2019-01-30T20:16:24.383Z,2.33
2019-01-30T20:18:28.963Z,2.30
2019-01-30T20:20:37.253Z,2.97
2019-01-30T20:22:47.283Z,2.57
2019-01-30T20:27:54.947Z,2.77
2019-01-30T20:30:21.012Z,2.67
2019-01-30T20:32:29.232Z,2.40
2019-01-30T20:34:40.348Z,2.90
2019-01-30T20:36:53.478Z,2.50
2019-01-30T20:39:03.874Z,2.83
2019-01-30T20:41:31.682Z,2.30
2019-01-30T20:43:42.906Z,2.70
2019-01-30T20:45:49.147Z,2.30
2019-01-30T20:48:00.433Z,2.67
2019-01-30T20:50:21.802Z,2.90
2019-01-30T20:52:36.092Z,3.20
2019-01-30T20:54:47.453Z,2.80
2019-01-30T20:57:16.081Z,2.40
2019-01-30T20:59:23.542Z,2.60
2019-01-30T21:01:28.792Z,2.80
2019-01-30T21:03:37.664Z,3.23
2019-01-30T21:05:44.835Z,2.63
2019-01-30T21:07:49.361Z,3.03
2019-01-30T21:09:55.489Z,3.00
2019-01-30T21:12:00.274Z,2.90
2019-01-30T21:14:06.890Z,2.60
2019-01-30T21:16:15.429Z,2.90
2019-01-30T21:18:23.712Z,2.30
2019-01-30T21:20:30.844Z,2.70
2019-01-30T21:22:36.834Z,2.67
2019-01-30T21:37:42.235Z,2.03
2019-01-30T21:42:00.451Z,1.90
2019-01-30T22:18:47.026Z,1.50
2019-01-30T22:20:58.044Z,1.83
2019-01-30T22:23:11.319Z,1.90
2019-01-30T22:25:20.654Z,1.73
2019-01-30T22:27:27.713Z,1.97
2019-01-30T22:29:38.087Z,1.63
2019-01-30T22:31:42.656Z,1.70
2019-01-30T22:33:47.076Z,1.50
2019-01-30T22:35:55.398Z,1.53
2019-01-30T22:38:12.563Z,1.50
2019-01-30T22:40:16.949Z,1.43
2019-01-30T22:42:23.310Z,1.43
2019-01-30T22:44:28.209Z,1.40
2019-01-30T22:46:33.850Z,1.33
2019-01-30T22:48:41.987Z,1.30
2019-01-30T22:50:47.033Z,1.50
2019-01-30T22:52:53.262Z,1.40
2019-01-30T22:55:03.621Z,1.60
2019-01-30T22:57:14.385Z,1.17
2019-01-30T22:59:18.800Z,1.30
2019-01-30T23:01:53.105Z,1.50
2019-01-30T23:04:36.086Z,1.50
2019-01-30T23:07:01.069Z,1.20
2019-01-30T23:09:49.837Z,1.50
2019-01-30T23:12:26.535Z,1.27
2019-01-30T23:14:48.560Z,1.40
2019-01-30T23:17:39.958Z,1.20
2019-01-30T23:20:14.340Z,1.40
2019-01-30T23:22:50.856Z,1.33
2019-01-30T23:25:45.983Z,1.40
2019-01-30T23:28:06.724Z,1.30
2019-01-30T23:30:47.663Z,1.57
2019-01-30T23:33:08.778Z,1.40
2019-01-30T23:35:45.687Z,6.67
2019-01-30T23:38:18.541Z,759.27
2019-01-30T23:40:45.470Z,770.83
2019-01-30T23:43:46.437Z,53.63
2019-01-30T23:45:57.687Z,581.10
2019-01-30T23:48:48.564Z,440.23
2019-01-30T23:51:40.409Z,151.17
2019-01-30T23:53:58.151Z,520.73
2019-01-30T23:56:21.606Z,319.07
2019-01-30T23:58:46.638Z,156.90
